sensor_id;sensor_type;location;lat;lon;timestamp;P1;durP1;ratioP1;P2;durP2;ratioP2
1682;SDS011;13252;53.596;10.060;2023-06-24T00:01:30;15.40;;;13.83;;
1682;SDS011;13252;53.596;10.060;2023-06-24T00:04:01;15.43;;;13.77;;
1682;SDS011;13252;53.596;10.060;2023-06-24T00:06:29;17.93;;;14.73;;
1682;SDS011;13252;53.596;10.060;2023-06-24T00:08:57;17.20;;;13.93;;
1682;SDS011;13252;53.596;10.060;2023-06-24T00:11:27;16.00;;;13.87;;
1682;SDS011;13252;53.596;10.060;2023-06-24T00:13:56;20.43;;;15.00;;
1682;SDS011;13252;53.596;10.060;2023-06-24T00:16:24;15.70;;;14.10;;
1682;SDS011;13252;53.596;10.060;2023-06-24T00:18:54;18.80;;;15.13;;
1682;SDS011;13252;53.596;10.060;2023-06-24T00:21:26;17.53;;;14.00;;
1682;SDS011;13252;53.596;10.060;2023-06-24T00:23:56;18.27;;;15.10;;
1682;SDS011;13252;53.596;10.060;2023-06-24T00:26:24;18.83;;;16.20;;
1682;SDS011;13252;53.596;10.060;2023-06-24T00:28:52;17.40;;;15.60;;
1682;SDS011;13252;53.596;10.060;2023-06-24T00:31:20;17.10;;;15.40;;
1682;SDS011;13252;53.596;10.060;2023-06-24T00:33:48;17.77;;;15.90;;
1682;SDS011;13252;53.596;10.060;2023-06-24T00:36:18;16.87;;;15.20;;
1682;SDS011;13252;53.596;10.060;2023-06-24T00:38:47;19.13;;;16.10;;
1682;SDS011;13252;53.596;10.060;2023-06-24T00:41:16;16.73;;;14.80;;
1682;SDS011;13252;53.596;10.060;2023-06-24T00:43:44;21.57;;;16.70;;
1682;SDS011;13252;53.596;10.060;2023-06-24T00:46:12;18.63;;;16.00;;
1682;SDS011;13252;53.596;10.060;2023-06-24T00:48:41;21.53;;;18.00;;
1682;SDS011;13252;53.596;10.060;2023-06-24T00:51:09;20.20;;;17.40;;
1682;SDS011;13252;53.596;10.060;2023-06-24T00:53:37;19.80;;;16.50;;
1682;SDS011;13252;53.596;10.060;2023-06-24T00:56:09;19.87;;;17.83;;
1682;SDS011;13252;53.596;10.060;2023-06-24T00:58:39;20.97;;;15.40;;
1682;SDS011;13252;53.596;10.060;2023-06-24T01:01:08;19.87;;;17.60;;
1682;SDS011;13252;53.596;10.060;2023-06-24T01:03:36;20.33;;;16.60;;
1682;SDS011;13252;53.596;10.060;2023-06-24T01:06:04;22.07;;;16.47;;
1682;SDS011;13252;53.596;10.060;2023-06-24T01:08:32;28.87;;;16.23;;
1682;SDS011;13252;53.596;10.060;2023-06-24T01:11:00;19.57;;;16.43;;
1682;SDS011;13252;53.596;10.060;2023-06-24T01:13:30;25.77;;;18.43;;
1682;SDS011;13252;53.596;10.060;2023-06-24T01:15:58;24.27;;;18.00;;
1682;SDS011;13252;53.596;10.060;2023-06-24T01:18:29;23.10;;;17.57;;
1682;SDS011;13252;53.596;10.060;2023-06-24T01:21:02;22.13;;;16.77;;
1682;SDS011;13252;53.596;10.060;2023-06-24T01:23:38;19.87;;;16.07;;
1682;SDS011;13252;53.596;10.060;2023-06-24T01:26:32;27.60;;;16.20;;
1682;SDS011;13252;53.596;10.060;2023-06-24T01:29:47;22.57;;;16.90;;
1682;SDS011;13252;53.596;10.060;2023-06-24T01:32:23;20.03;;;16.63;;
1682;SDS011;13252;53.596;10.060;2023-06-24T01:34:56;27.23;;;16.57;;
1682;SDS011;13252;53.596;10.060;2023-06-24T01:37:25;18.47;;;15.97;;
1682;SDS011;13252;53.596;10.060;2023-06-24T01:39:57;17.10;;;15.30;;
1682;SDS011;13252;53.596;10.060;2023-06-24T01:42:34;19.03;;;17.00;;
1682;SDS011;13252;53.596;10.060;2023-06-24T01:45:06;19.13;;;14.93;;
1682;SDS011;13252;53.596;10.060;2023-06-24T01:47:36;24.40;;;15.77;;
1682;SDS011;13252;53.596;10.060;2023-06-24T01:50:05;20.13;;;16.07;;
1682;SDS011;13252;53.596;10.060;2023-06-24T01:52:34;17.47;;;15.60;;
1682;SDS011;13252;53.596;10.060;2023-06-24T01:55:04;23.30;;;16.00;;
1682;SDS011;13252;53.596;10.060;2023-06-24T01:57:34;25.10;;;16.37;;
1682;SDS011;13252;53.596;10.060;2023-06-24T02:00:05;17.30;;;14.87;;
1682;SDS011;13252;53.596;10.060;2023-06-24T02:02:48;21.17;;;16.70;;
1682;SDS011;13252;53.596;10.060;2023-06-24T02:05:17;17.57;;;15.50;;
1682;SDS011;13252;53.596;10.060;2023-06-24T02:07:46;21.20;;;17.57;;
1682;SDS011;13252;53.596;10.060;2023-06-24T02:10:14;18.97;;;16.87;;
1682;SDS011;13252;53.596;10.060;2023-06-24T02:12:44;24.33;;;18.43;;
1682;SDS011;13252;53.596;10.060;2023-06-24T02:15:12;24.33;;;17.20;;
1682;SDS011;13252;53.596;10.060;2023-06-24T02:17:40;20.90;;;15.40;;
1682;SDS011;13252;53.596;10.060;2023-06-24T02:20:11;23.67;;;16.63;;
1682;SDS011;13252;53.596;10.060;2023-06-24T02:22:39;21.33;;;15.90;;
1682;SDS011;13252;53.596;10.060;2023-06-24T02:25:09;17.83;;;15.93;;
1682;SDS011;13252;53.596;10.060;2023-06-24T02:27:37;19.10;;;16.77;;
1682;SDS011;13252;53.596;10.060;2023-06-24T02:30:05;16.97;;;15.20;;
1682;SDS011;13252;53.596;10.060;2023-06-24T02:32:35;18.63;;;15.47;;
1682;SDS011;13252;53.596;10.060;2023-06-24T02:35:05;20.23;;;16.23;;
1682;SDS011;13252;53.596;10.060;2023-06-24T02:37:35;19.60;;;17.47;;
1682;SDS011;13252;53.596;10.060;2023-06-24T02:40:06;21.67;;;17.57;;
1682;SDS011;13252;53.596;10.060;2023-06-24T02:42:36;19.87;;;15.90;;
1682;SDS011;13252;53.596;10.060;2023-06-24T02:45:05;21.10;;;16.10;;
1682;SDS011;13252;53.596;10.060;2023-06-24T02:47:35;18.97;;;16.50;;
1682;SDS011;13252;53.596;10.060;2023-06-24T02:50:03;25.87;;;15.90;;
1682;SDS011;13252;53.596;10.060;2023-06-24T02:52:33;24.97;;;16.10;;
1682;SDS011;13252;53.596;10.060;2023-06-24T02:55:06;18.70;;;16.80;;
1682;SDS011;13252;53.596;10.060;2023-06-24T02:57:46;21.37;;;18.23;;
1682;SDS011;13252;53.596;10.060;2023-06-24T03:00:23;19.10;;;15.63;;
1682;SDS011;13252;53.596;10.060;2023-06-24T03:03:07;20.40;;;16.80;;
1682;SDS011;13252;53.596;10.060;2023-06-24T03:05:46;19.87;;;16.73;;
1682;SDS011;13252;53.596;10.060;2023-06-24T03:08:20;25.20;;;17.03;;
1682;SDS011;13252;53.596;10.060;2023-06-24T03:10:50;22.07;;;16.27;;
1682;SDS011;13252;53.596;10.060;2023-06-24T03:13:21;22.40;;;17.50;;
1682;SDS011;13252;53.596;10.060;2023-06-24T03:15:55;22.00;;;17.73;;
1682;SDS011;13252;53.596;10.060;2023-06-24T03:18:23;42.70;;;17.60;;
1682;SDS011;13252;53.596;10.060;2023-06-24T03:20:51;19.77;;;17.17;;
1682;SDS011;13252;53.596;10.060;2023-06-24T03:23:24;28.07;;;17.23;;
1682;SDS011;13252;53.596;10.060;2023-06-24T03:25:52;22.60;;;16.63;;
1682;SDS011;13252;53.596;10.060;2023-06-24T03:28:20;21.57;;;18.50;;
1682;SDS011;13252;53.596;10.060;2023-06-24T03:30:56;26.93;;;17.60;;
1682;SDS011;13252;53.596;10.060;2023-06-24T03:33:24;24.53;;;18.57;;
1682;SDS011;13252;53.596;10.060;2023-06-24T03:35:53;25.40;;;17.93;;
1682;SDS011;13252;53.596;10.060;2023-06-24T03:38:27;22.67;;;17.43;;
1682;SDS011;13252;53.596;10.060;2023-06-24T03:40:56;28.00;;;17.83;;
1682;SDS011;13252;53.596;10.060;2023-06-24T03:43:24;19.80;;;16.33;;
1682;SDS011;13252;53.596;10.060;2023-06-24T03:45:52;25.70;;;18.50;;
1682;SDS011;13252;53.596;10.060;2023-06-24T03:48:20;28.07;;;19.10;;
1682;SDS011;13252;53.596;10.060;2023-06-24T03:50:48;22.87;;;18.17;;
1682;SDS011;13252;53.596;10.060;2023-06-24T03:53:15;19.23;;;16.70;;
1682;SDS011;13252;53.596;10.060;2023-06-24T03:55:46;27.03;;;17.90;;
1682;SDS011;13252;53.596;10.060;2023-06-24T03:58:16;19.47;;;17.33;;
1682;SDS011;13252;53.596;10.060;2023-06-24T04:00:48;19.43;;;16.83;;
1682;SDS011;13252;53.596;10.060;2023-06-24T04:03:16;24.53;;;17.80;;
1682;SDS011;13252;53.596;10.060;2023-06-24T04:05:45;18.07;;;15.90;;
1682;SDS011;13252;53.596;10.060;2023-06-24T04:08:12;27.87;;;17.83;;
1682;SDS011;13252;53.596;10.060;2023-06-24T04:10:40;20.20;;;17.17;;
1682;SDS011;13252;53.596;10.060;2023-06-24T04:13:12;27.30;;;16.53;;
1682;SDS011;13252;53.596;10.060;2023-06-24T04:15:40;19.87;;;15.27;;
1682;SDS011;13252;53.596;10.060;2023-06-24T04:18:07;18.03;;;16.10;;
1682;SDS011;13252;53.596;10.060;2023-06-24T04:20:35;23.63;;;14.60;;
1682;SDS011;13252;53.596;10.060;2023-06-24T04:23:04;15.57;;;13.90;;
1682;SDS011;13252;53.596;10.060;2023-06-24T04:25:33;15.00;;;13.40;;
1682;SDS011;13252;53.596;10.060;2023-06-24T04:28:02;16.50;;;14.40;;
1682;SDS011;13252;53.596;10.060;2023-06-24T04:30:32;19.03;;;12.70;;
1682;SDS011;13252;53.596;10.060;2023-06-24T04:33:02;20.83;;;13.97;;
1682;SDS011;13252;53.596;10.060;2023-06-24T04:35:30;21.10;;;13.00;;
1682;SDS011;13252;53.596;10.060;2023-06-24T04:37:58;15.57;;;13.57;;
1682;SDS011;13252;53.596;10.060;2023-06-24T04:40:26;15.17;;;12.20;;
1682;SDS011;13252;53.596;10.060;2023-06-24T04:42:54;17.57;;;12.07;;
1682;SDS011;13252;53.596;10.060;2023-06-24T04:45:21;12.40;;;10.57;;
1682;SDS011;13252;53.596;10.060;2023-06-24T04:47:50;13.90;;;11.37;;
1682;SDS011;13252;53.596;10.060;2023-06-24T04:50:19;16.03;;;12.13;;
1682;SDS011;13252;53.596;10.060;2023-06-24T04:52:51;13.00;;;10.17;;
1682;SDS011;13252;53.596;10.060;2023-06-24T04:55:20;11.30;;;9.60;;
1682;SDS011;13252;53.596;10.060;2023-06-24T04:57:48;17.03;;;9.57;;
1682;SDS011;13252;53.596;10.060;2023-06-24T05:00:16;13.13;;;9.03;;
1682;SDS011;13252;53.596;10.060;2023-06-24T05:02:43;11.17;;;9.50;;
1682;SDS011;13252;53.596;10.060;2023-06-24T05:05:13;12.23;;;8.50;;
1682;SDS011;13252;53.596;10.060;2023-06-24T05:07:40;10.33;;;7.97;;
1682;SDS011;13252;53.596;10.060;2023-06-24T05:10:08;13.70;;;9.40;;
1682;SDS011;13252;53.596;10.060;2023-06-24T05:12:36;12.50;;;7.63;;
1682;SDS011;13252;53.596;10.060;2023-06-24T05:15:04;10.80;;;7.90;;
1682;SDS011;13252;53.596;10.060;2023-06-24T05:17:32;14.07;;;8.57;;
1682;SDS011;13252;53.596;10.060;2023-06-24T05:20:00;8.93;;;7.80;;
1682;SDS011;13252;53.596;10.060;2023-06-24T05:22:28;10.43;;;7.30;;
1682;SDS011;13252;53.596;10.060;2023-06-24T05:24:56;14.47;;;7.73;;
1682;SDS011;13252;53.596;10.060;2023-06-24T05:27:24;10.93;;;7.17;;
1682;SDS011;13252;53.596;10.060;2023-06-24T05:29:51;11.83;;;7.40;;
1682;SDS011;13252;53.596;10.060;2023-06-24T05:32:19;14.73;;;7.57;;
1682;SDS011;13252;53.596;10.060;2023-06-24T05:34:47;10.70;;;7.00;;
1682;SDS011;13252;53.596;10.060;2023-06-24T05:37:14;12.30;;;6.47;;
1682;SDS011;13252;53.596;10.060;2023-06-24T05:39:44;9.10;;;5.63;;
1682;SDS011;13252;53.596;10.060;2023-06-24T05:42:11;12.10;;;5.80;;
1682;SDS011;13252;53.596;10.060;2023-06-24T05:44:39;11.90;;;5.33;;
1682;SDS011;13252;53.596;10.060;2023-06-24T05:47:07;7.00;;;4.70;;
1682;SDS011;13252;53.596;10.060;2023-06-24T05:49:34;9.73;;;5.10;;
1682;SDS011;13252;53.596;10.060;2023-06-24T05:52:02;6.90;;;4.93;;
1682;SDS011;13252;53.596;10.060;2023-06-24T05:54:30;8.07;;;4.60;;
1682;SDS011;13252;53.596;10.060;2023-06-24T05:56:59;8.13;;;4.30;;
1682;SDS011;13252;53.596;10.060;2023-06-24T05:59:26;8.57;;;5.23;;
1682;SDS011;13252;53.596;10.060;2023-06-24T06:01:54;8.03;;;4.50;;
1682;SDS011;13252;53.596;10.060;2023-06-24T06:04:22;9.70;;;4.67;;
1682;SDS011;13252;53.596;10.060;2023-06-24T06:06:49;6.80;;;4.30;;
1682;SDS011;13252;53.596;10.060;2023-06-24T06:09:17;8.67;;;4.73;;
1682;SDS011;13252;53.596;10.060;2023-06-24T06:11:45;10.60;;;5.27;;
1682;SDS011;13252;53.596;10.060;2023-06-24T06:14:15;9.60;;;4.67;;
1682;SDS011;13252;53.596;10.060;2023-06-24T06:16:42;7.10;;;4.80;;
1682;SDS011;13252;53.596;10.060;2023-06-24T06:19:10;7.80;;;4.03;;
1682;SDS011;13252;53.596;10.060;2023-06-24T06:21:38;8.53;;;4.07;;
1682;SDS011;13252;53.596;10.060;2023-06-24T06:24:06;8.27;;;4.57;;
1682;SDS011;13252;53.596;10.060;2023-06-24T06:26:33;9.07;;;4.90;;
1682;SDS011;13252;53.596;10.060;2023-06-24T06:29:01;13.40;;;5.10;;
1682;SDS011;13252;53.596;10.060;2023-06-24T06:31:30;7.23;;;5.13;;
1682;SDS011;13252;53.596;10.060;2023-06-24T06:33:58;8.87;;;5.13;;
1682;SDS011;13252;53.596;10.060;2023-06-24T06:36:26;5.50;;;4.43;;
1682;SDS011;13252;53.596;10.060;2023-06-24T06:38:54;5.87;;;4.40;;
1682;SDS011;13252;53.596;10.060;2023-06-24T06:41:22;10.10;;;5.77;;
1682;SDS011;13252;53.596;10.060;2023-06-24T06:43:52;6.83;;;4.70;;
1682;SDS011;13252;53.596;10.060;2023-06-24T06:46:20;11.20;;;4.67;;
1682;SDS011;13252;53.596;10.060;2023-06-24T06:48:49;6.10;;;5.50;;
1682;SDS011;13252;53.596;10.060;2023-06-24T06:51:17;10.83;;;4.60;;
1682;SDS011;13252;53.596;10.060;2023-06-24T06:53:46;6.73;;;3.93;;
1682;SDS011;13252;53.596;10.060;2023-06-24T06:56:17;5.73;;;4.20;;
1682;SDS011;13252;53.596;10.060;2023-06-24T06:58:45;6.17;;;5.17;;
1682;SDS011;13252;53.596;10.060;2023-06-24T07:01:13;6.83;;;3.93;;
1682;SDS011;13252;53.596;10.060;2023-06-24T07:03:40;15.90;;;4.80;;
1682;SDS011;13252;53.596;10.060;2023-06-24T07:06:09;7.83;;;4.60;;
1682;SDS011;13252;53.596;10.060;2023-06-24T07:08:37;6.90;;;4.10;;
1682;SDS011;13252;53.596;10.060;2023-06-24T07:11:05;9.40;;;4.20;;
1682;SDS011;13252;53.596;10.060;2023-06-24T07:13:32;4.40;;;4.00;;
1682;SDS011;13252;53.596;10.060;2023-06-24T07:16:00;5.90;;;4.33;;
1682;SDS011;13252;53.596;10.060;2023-06-24T07:18:27;7.13;;;3.80;;
1682;SDS011;13252;53.596;10.060;2023-06-24T07:20:57;7.50;;;4.43;;
1682;SDS011;13252;53.596;10.060;2023-06-24T07:23:28;5.40;;;4.40;;
1682;SDS011;13252;53.596;10.060;2023-06-24T07:25:56;6.80;;;4.20;;
1682;SDS011;13252;53.596;10.060;2023-06-24T07:28:25;10.13;;;4.93;;
1682;SDS011;13252;53.596;10.060;2023-06-24T07:30:53;7.20;;;4.00;;
1682;SDS011;13252;53.596;10.060;2023-06-24T07:33:21;6.87;;;4.70;;
1682;SDS011;13252;53.596;10.060;2023-06-24T07:35:48;7.00;;;4.57;;
1682;SDS011;13252;53.596;10.060;2023-06-24T07:38:16;6.87;;;3.37;;
1682;SDS011;13252;53.596;10.060;2023-06-24T07:40:45;6.83;;;3.73;;
1682;SDS011;13252;53.596;10.060;2023-06-24T07:43:13;7.47;;;4.07;;
1682;SDS011;13252;53.596;10.060;2023-06-24T07:45:41;6.57;;;3.70;;
1682;SDS011;13252;53.596;10.060;2023-06-24T07:48:08;11.00;;;4.60;;
1682;SDS011;13252;53.596;10.060;2023-06-24T07:50:37;6.33;;;3.80;;
1682;SDS011;13252;53.596;10.060;2023-06-24T07:53:08;5.57;;;4.10;;
1682;SDS011;13252;53.596;10.060;2023-06-24T07:55:35;6.93;;;4.50;;
1682;SDS011;13252;53.596;10.060;2023-06-24T07:58:05;4.60;;;3.57;;
1682;SDS011;13252;53.596;10.060;2023-06-24T08:00:33;7.10;;;3.50;;
1682;SDS011;13252;53.596;10.060;2023-06-24T08:03:04;5.93;;;3.80;;
1682;SDS011;13252;53.596;10.060;2023-06-24T08:05:32;10.27;;;4.03;;
1682;SDS011;13252;53.596;10.060;2023-06-24T08:08:01;8.07;;;4.50;;
1682;SDS011;13252;53.596;10.060;2023-06-24T08:10:28;8.47;;;4.30;;
1682;SDS011;13252;53.596;10.060;2023-06-24T08:12:56;8.23;;;4.17;;
1682;SDS011;13252;53.596;10.060;2023-06-24T08:15:25;6.67;;;4.13;;
1682;SDS011;13252;53.596;10.060;2023-06-24T08:17:53;12.23;;;4.47;;
1682;SDS011;13252;53.596;10.060;2023-06-24T08:20:21;6.97;;;3.80;;
1682;SDS011;13252;53.596;10.060;2023-06-24T08:22:50;6.73;;;3.87;;
1682;SDS011;13252;53.596;10.060;2023-06-24T08:25:18;7.53;;;4.30;;
1682;SDS011;13252;53.596;10.060;2023-06-24T08:27:45;5.00;;;4.00;;
1682;SDS011;13252;53.596;10.060;2023-06-24T08:30:13;7.43;;;4.30;;
1682;SDS011;13252;53.596;10.060;2023-06-24T08:32:43;6.50;;;4.33;;
1682;SDS011;13252;53.596;10.060;2023-06-24T08:35:13;5.07;;;4.20;;
1682;SDS011;13252;53.596;10.060;2023-06-24T08:37:41;6.37;;;3.80;;
1682;SDS011;13252;53.596;10.060;2023-06-24T08:40:09;9.40;;;4.13;;
1682;SDS011;13252;53.596;10.060;2023-06-24T08:42:37;15.17;;;5.20;;
1682;SDS011;13252;53.596;10.060;2023-06-24T08:45:05;8.23;;;5.43;;
1682;SDS011;13252;53.596;10.060;2023-06-24T08:47:34;5.13;;;4.10;;
1682;SDS011;13252;53.596;10.060;2023-06-24T08:50:07;6.87;;;5.27;;
1682;SDS011;13252;53.596;10.060;2023-06-24T08:52:38;10.00;;;5.30;;
1682;SDS011;13252;53.596;10.060;2023-06-24T08:55:10;8.83;;;4.50;;
1682;SDS011;13252;53.596;10.060;2023-06-24T08:57:41;9.70;;;5.10;;
1682;SDS011;13252;53.596;10.060;2023-06-24T09:00:09;12.77;;;5.40;;
1682;SDS011;13252;53.596;10.060;2023-06-24T09:02:39;6.50;;;4.53;;
1682;SDS011;13252;53.596;10.060;2023-06-24T09:05:08;5.53;;;4.20;;
1682;SDS011;13252;53.596;10.060;2023-06-24T09:07:36;7.83;;;4.30;;
1682;SDS011;13252;53.596;10.060;2023-06-24T09:10:04;6.80;;;4.80;;
1682;SDS011;13252;53.596;10.060;2023-06-24T09:12:33;8.33;;;4.73;;
1682;SDS011;13252;53.596;10.060;2023-06-24T09:15:02;12.50;;;4.77;;
1682;SDS011;13252;53.596;10.060;2023-06-24T09:17:31;7.33;;;4.57;;
1682;SDS011;13252;53.596;10.060;2023-06-24T09:20:03;8.13;;;4.60;;
1682;SDS011;13252;53.596;10.060;2023-06-24T09:22:33;8.87;;;4.33;;
1682;SDS011;13252;53.596;10.060;2023-06-24T09:25:01;7.70;;;4.47;;
1682;SDS011;13252;53.596;10.060;2023-06-24T09:27:31;5.20;;;3.93;;
1682;SDS011;13252;53.596;10.060;2023-06-24T09:29:59;8.50;;;3.80;;
1682;SDS011;13252;53.596;10.060;2023-06-24T09:32:29;5.10;;;4.03;;
1682;SDS011;13252;53.596;10.060;2023-06-24T09:34:57;6.33;;;3.40;;
1682;SDS011;13252;53.596;10.060;2023-06-24T09:37:29;8.00;;;4.60;;
1682;SDS011;13252;53.596;10.060;2023-06-24T09:40:00;7.67;;;4.10;;
1682;SDS011;13252;53.596;10.060;2023-06-24T09:42:31;10.13;;;4.70;;
1682;SDS011;13252;53.596;10.060;2023-06-24T09:44:59;7.00;;;4.30;;
1682;SDS011;13252;53.596;10.060;2023-06-24T09:47:31;6.20;;;3.57;;
1682;SDS011;13252;53.596;10.060;2023-06-24T09:49:59;5.10;;;3.90;;
1682;SDS011;13252;53.596;10.060;2023-06-24T09:52:29;8.27;;;3.90;;
1682;SDS011;13252;53.596;10.060;2023-06-24T09:54:59;6.17;;;4.73;;
1682;SDS011;13252;53.596;10.060;2023-06-24T09:57:31;12.07;;;5.90;;
1682;SDS011;13252;53.596;10.060;2023-06-24T09:59:59;12.70;;;4.83;;
1682;SDS011;13252;53.596;10.060;2023-06-24T10:02:31;6.87;;;4.53;;
1682;SDS011;13252;53.596;10.060;2023-06-24T10:05:00;9.30;;;4.20;;
1682;SDS011;13252;53.596;10.060;2023-06-24T10:07:28;6.50;;;4.40;;
1682;SDS011;13252;53.596;10.060;2023-06-24T10:09:55;5.70;;;4.30;;
1682;SDS011;13252;53.596;10.060;2023-06-24T10:12:25;7.83;;;4.80;;
1682;SDS011;13252;53.596;10.060;2023-06-24T10:14:54;5.93;;;3.90;;
1682;SDS011;13252;53.596;10.060;2023-06-24T10:17:22;6.10;;;3.77;;
1682;SDS011;13252;53.596;10.060;2023-06-24T10:19:51;6.90;;;4.50;;
1682;SDS011;13252;53.596;10.060;2023-06-24T10:22:20;5.40;;;3.90;;
1682;SDS011;13252;53.596;10.060;2023-06-24T10:24:49;7.20;;;4.57;;
1682;SDS011;13252;53.596;10.060;2023-06-24T10:27:18;8.63;;;5.53;;
1682;SDS011;13252;53.596;10.060;2023-06-24T10:29:50;6.10;;;4.80;;
1682;SDS011;13252;53.596;10.060;2023-06-24T10:32:19;6.93;;;4.67;;
1682;SDS011;13252;53.596;10.060;2023-06-24T10:34:47;7.97;;;4.43;;
1682;SDS011;13252;53.596;10.060;2023-06-24T10:37:18;8.63;;;4.50;;
1682;SDS011;13252;53.596;10.060;2023-06-24T10:39:47;8.57;;;4.13;;
1682;SDS011;13252;53.596;10.060;2023-06-24T10:42:25;6.07;;;5.13;;
1682;SDS011;13252;53.596;10.060;2023-06-24T10:45:01;9.03;;;6.30;;
1682;SDS011;13252;53.596;10.060;2023-06-24T10:47:30;7.90;;;4.53;;
1682;SDS011;13252;53.596;10.060;2023-06-24T10:49:58;7.47;;;5.33;;
1682;SDS011;13252;53.596;10.060;2023-06-24T10:52:26;85.07;;;28.87;;
1682;SDS011;13252;53.596;10.060;2023-06-24T10:54:53;8.23;;;6.00;;
1682;SDS011;13252;53.596;10.060;2023-06-24T10:57:22;6.83;;;4.83;;
1682;SDS011;13252;53.596;10.060;2023-06-24T10:59:51;8.00;;;4.73;;
1682;SDS011;13252;53.596;10.060;2023-06-24T11:02:21;9.90;;;5.73;;
1682;SDS011;13252;53.596;10.060;2023-06-24T11:04:51;5.63;;;4.50;;
1682;SDS011;13252;53.596;10.060;2023-06-24T11:07:20;7.00;;;4.63;;
1682;SDS011;13252;53.596;10.060;2023-06-24T11:09:50;6.73;;;4.70;;
1682;SDS011;13252;53.596;10.060;2023-06-24T11:12:18;6.20;;;5.00;;
1682;SDS011;13252;53.596;10.060;2023-06-24T11:14:45;7.67;;;5.00;;
1682;SDS011;13252;53.596;10.060;2023-06-24T11:17:13;5.80;;;4.93;;
1682;SDS011;13252;53.596;10.060;2023-06-24T11:19:42;5.90;;;5.27;;
1682;SDS011;13252;53.596;10.060;2023-06-24T11:22:10;7.17;;;4.80;;
1682;SDS011;13252;53.596;10.060;2023-06-24T11:24:38;8.23;;;4.83;;
1682;SDS011;13252;53.596;10.060;2023-06-24T11:27:06;5.97;;;4.97;;
1682;SDS011;13252;53.596;10.060;2023-06-24T11:29:33;5.87;;;5.00;;
1682;SDS011;13252;53.596;10.060;2023-06-24T11:32:02;5.83;;;4.53;;
1682;SDS011;13252;53.596;10.060;2023-06-24T11:34:30;9.23;;;6.47;;
1682;SDS011;13252;53.596;10.060;2023-06-24T11:36:59;5.27;;;4.70;;
1682;SDS011;13252;53.596;10.060;2023-06-24T11:39:36;5.77;;;4.47;;
1682;SDS011;13252;53.596;10.060;2023-06-24T11:42:05;7.97;;;4.67;;
1682;SDS011;13252;53.596;10.060;2023-06-24T11:44:33;4.70;;;4.17;;
1682;SDS011;13252;53.596;10.060;2023-06-24T11:47:04;6.20;;;4.30;;
1682;SDS011;13252;53.596;10.060;2023-06-24T11:49:47;7.70;;;4.33;;
1682;SDS011;13252;53.596;10.060;2023-06-24T11:52:16;6.60;;;5.20;;
1682;SDS011;13252;53.596;10.060;2023-06-24T11:54:44;5.37;;;3.90;;
1682;SDS011;13252;53.596;10.060;2023-06-24T11:57:13;6.43;;;4.63;;
1682;SDS011;13252;53.596;10.060;2023-06-24T11:59:41;5.63;;;4.30;;
1682;SDS011;13252;53.596;10.060;2023-06-24T12:02:12;6.27;;;4.60;;
1682;SDS011;13252;53.596;10.060;2023-06-24T12:04:43;7.27;;;4.93;;
1682;SDS011;13252;53.596;10.060;2023-06-24T12:07:11;5.80;;;4.87;;
1682;SDS011;13252;53.596;10.060;2023-06-24T12:09:40;8.00;;;5.10;;
1682;SDS011;13252;53.596;10.060;2023-06-24T12:12:08;6.20;;;4.60;;
1682;SDS011;13252;53.596;10.060;2023-06-24T12:14:36;9.90;;;4.53;;
1682;SDS011;13252;53.596;10.060;2023-06-24T12:17:03;11.77;;;5.17;;
1682;SDS011;13252;53.596;10.060;2023-06-24T12:19:31;8.00;;;5.33;;
1682;SDS011;13252;53.596;10.060;2023-06-24T12:21:59;8.93;;;5.73;;
1682;SDS011;13252;53.596;10.060;2023-06-24T12:24:26;6.63;;;4.80;;
1682;SDS011;13252;53.596;10.060;2023-06-24T12:26:55;6.73;;;4.80;;
1682;SDS011;13252;53.596;10.060;2023-06-24T12:29:23;8.53;;;4.53;;
1682;SDS011;13252;53.596;10.060;2023-06-24T12:31:51;7.97;;;4.97;;
1682;SDS011;13252;53.596;10.060;2023-06-24T12:34:19;6.87;;;4.67;;
1682;SDS011;13252;53.596;10.060;2023-06-24T12:36:47;6.83;;;4.73;;
1682;SDS011;13252;53.596;10.060;2023-06-24T12:39:14;7.30;;;5.20;;
1682;SDS011;13252;53.596;10.060;2023-06-24T12:41:45;6.20;;;4.83;;
1682;SDS011;13252;53.596;10.060;2023-06-24T12:44:15;9.30;;;4.70;;
1682;SDS011;13252;53.596;10.060;2023-06-24T12:46:42;6.33;;;4.93;;
1682;SDS011;13252;53.596;10.060;2023-06-24T12:49:10;5.47;;;4.50;;
1682;SDS011;13252;53.596;10.060;2023-06-24T12:51:38;5.60;;;4.00;;
1682;SDS011;13252;53.596;10.060;2023-06-24T12:54:05;8.20;;;4.90;;
1682;SDS011;13252;53.596;10.060;2023-06-24T12:56:33;7.10;;;4.30;;
1682;SDS011;13252;53.596;10.060;2023-06-24T12:59:01;6.60;;;5.27;;
1682;SDS011;13252;53.596;10.060;2023-06-24T13:01:30;9.43;;;5.00;;
1682;SDS011;13252;53.596;10.060;2023-06-24T13:03:58;8.80;;;5.50;;
1682;SDS011;13252;53.596;10.060;2023-06-24T13:06:25;8.77;;;5.00;;
1682;SDS011;13252;53.596;10.060;2023-06-24T13:08:53;5.00;;;4.37;;
1682;SDS011;13252;53.596;10.060;2023-06-24T13:11:21;6.90;;;4.67;;
1682;SDS011;13252;53.596;10.060;2023-06-24T13:13:48;5.63;;;4.60;;
1682;SDS011;13252;53.596;10.060;2023-06-24T13:16:16;8.07;;;4.70;;
1682;SDS011;13252;53.596;10.060;2023-06-24T13:18:45;9.00;;;4.07;;
1682;SDS011;13252;53.596;10.060;2023-06-24T13:21:12;7.00;;;4.47;;
1682;SDS011;13252;53.596;10.060;2023-06-24T13:23:42;7.60;;;4.83;;
1682;SDS011;13252;53.596;10.060;2023-06-24T13:26:09;5.97;;;4.87;;
1682;SDS011;13252;53.596;10.060;2023-06-24T13:28:38;5.47;;;4.50;;
1682;SDS011;13252;53.596;10.060;2023-06-24T13:31:06;6.70;;;4.30;;
1682;SDS011;13252;53.596;10.060;2023-06-24T13:33:34;8.00;;;4.93;;
1682;SDS011;13252;53.596;10.060;2023-06-24T13:36:03;5.37;;;4.00;;
1682;SDS011;13252;53.596;10.060;2023-06-24T13:38:32;6.40;;;4.70;;
1682;SDS011;13252;53.596;10.060;2023-06-24T13:40:59;12.00;;;4.73;;
1682;SDS011;13252;53.596;10.060;2023-06-24T13:43:27;9.23;;;4.97;;
1682;SDS011;13252;53.596;10.060;2023-06-24T13:45:54;5.90;;;4.40;;
1682;SDS011;13252;53.596;10.060;2023-06-24T13:48:23;4.20;;;3.60;;
1682;SDS011;13252;53.596;10.060;2023-06-24T13:50:50;6.47;;;4.10;;
1682;SDS011;13252;53.596;10.060;2023-06-24T13:53:19;4.70;;;4.10;;
1682;SDS011;13252;53.596;10.060;2023-06-24T13:55:47;6.63;;;4.17;;
1682;SDS011;13252;53.596;10.060;2023-06-24T13:58:14;6.83;;;4.33;;
1682;SDS011;13252;53.596;10.060;2023-06-24T14:00:42;6.10;;;4.47;;
1682;SDS011;13252;53.596;10.060;2023-06-24T14:03:09;5.50;;;4.03;;
1682;SDS011;13252;53.596;10.060;2023-06-24T14:05:37;4.67;;;3.73;;
1682;SDS011;13252;53.596;10.060;2023-06-24T14:08:05;8.87;;;4.50;;
1682;SDS011;13252;53.596;10.060;2023-06-24T14:10:34;4.80;;;4.20;;
1682;SDS011;13252;53.596;10.060;2023-06-24T14:13:02;5.20;;;3.97;;
1682;SDS011;13252;53.596;10.060;2023-06-24T14:15:31;9.53;;;4.37;;
1682;SDS011;13252;53.596;10.060;2023-06-24T14:17:59;9.30;;;4.50;;
1682;SDS011;13252;53.596;10.060;2023-06-24T14:20:26;5.53;;;4.13;;
1682;SDS011;13252;53.596;10.060;2023-06-24T14:22:54;6.27;;;3.90;;
1682;SDS011;13252;53.596;10.060;2023-06-24T14:25:21;6.00;;;4.13;;
1682;SDS011;13252;53.596;10.060;2023-06-24T14:27:51;9.87;;;4.10;;
1682;SDS011;13252;53.596;10.060;2023-06-24T14:30:19;6.93;;;4.30;;
1682;SDS011;13252;53.596;10.060;2023-06-24T14:32:46;7.30;;;4.13;;
1682;SDS011;13252;53.596;10.060;2023-06-24T14:35:14;7.27;;;3.80;;
1682;SDS011;13252;53.596;10.060;2023-06-24T14:37:42;6.17;;;4.70;;
1682;SDS011;13252;53.596;10.060;2023-06-24T14:40:09;6.13;;;4.63;;
1682;SDS011;13252;53.596;10.060;2023-06-24T14:42:37;7.00;;;4.70;;
1682;SDS011;13252;53.596;10.060;2023-06-24T14:45:07;4.20;;;3.80;;
1682;SDS011;13252;53.596;10.060;2023-06-24T14:47:35;5.70;;;3.87;;
1682;SDS011;13252;53.596;10.060;2023-06-24T14:50:03;8.03;;;4.53;;